Terminal Aerodrome Forecast
Issued by NWS Twin Cities, MN

Home | Current Version | Previous Version | Graphics & Text | Print | Product List | Glossary On
Versions: 1 2 3 4 5 6 7 8 9 10 11 12 13 14 15
000
FTUS43 KMPX 242330
TAFSTC
TAF
KSTC 242330Z 2500/2524 17008KT P6SM VCSH BKN060 BKN110
     FM251100 32008KT 4SM BR SCT008 BKN015
     FM251500 35007KT P6SM VCSH SCT008 BKN012 OVC020
     FM252000 01008KT 5SM -SHRA BR OVC015
     FM252300 01010KT 1 1/2SM -SHRA BR OVC008=

USA.gov is the U.S. government's official web portal to all federal, state and local government web resources and services.